Akvatrans — LKLG — position and weather

sailwx.info

Track history (hours):
 
Tides and Currents Weather Stations Pressure Air Temp Water Temp Dewpoint Dewpoint Depression Visibility Wind Speed Wind Dir Waves Ship Positions

Akvatrans

Last reported at 2018-Jun-30 00:52 UTC. Time now 2018-Jul-15 19:00 UTC.
Position N 68°45' E 016°42'.
Warning: this ship's position is 15 days out of date.

Length 44 m; draft 4 m.

Type: Ship. MMSI: 257034600.

Date/timePositionNaut miles runAvg speedWind from/ knotsBaromVisibWave heightAir tempDewpointWater temp
2018-Jun-30 00:52N 68°45' E 016°42'  
2018-Jun-27 17:08N 68°54' E 017°27'1 8.8
2018-Jun-27 17:01N 68°55' E 017°26'4 8.8
2018-Jun-27 16:30N 68°59' E 017°27'5 9.2
2018-Jun-27 16:00N 69°03' E 017°33'4 8.5
2018-Jun-27 15:30N 69°07' E 017°39'4 8.8
2018-Jun-27 15:00N 69°09' E 017°49'5 9.1
2018-Jun-27 14:30N 69°11' E 018°01'  
2018-Jun-24 03:13N 69°12' E 018°01'3 9.1
2018-Jun-24 02:56N 69°10' E 017°56'410.4
2018-Jun-24 02:30N 69°08' E 017°45'510.1
2018-Jun-24 02:00N 69°06' E 017°32'6 9.2
2018-Jun-24 01:21N 69°02' E 017°19'3 9.3
2018-Jun-24 01:00N 68°60' E 017°14'5 9.3
2018-Jun-24 00:30N 68°56' E 017°06'5 9.6
2018-Jun-24 00:00N 68°52' E 016°59'5 9.6
2018-Jun-23 23:30N 68°48' E 016°52'92 7.6
2018-Jun-23 11:30N 67°33' E 014°30'5 9.6
2018-Jun-23 11:00N 67°28' E 014°28'5 9.5
2018-Jun-23 10:31N 67°23' E 014°26'1 2.4
2018-Jun-23 10:00N 67°23' E 014°23'0 0.0
2018-Jun-23 09:30N 67°23' E 014°23'0 0.0
2018-Jun-23 09:01N 67°23' E 014°23'2 3.2
2018-Jun-23 08:30N 67°24' E 014°26'5 9.2
2018-Jun-23 08:00N 67°20' E 014°20'5 9.9
2018-Jun-23 07:30N 67°16' E 014°13'5 9.5
2018-Jun-23 07:00N 67°12' E 014°06'5 9.6
2018-Jun-23 06:30N 67°07' E 014°01'5 9.4
2018-Jun-23 06:00N 67°04' E 013°53'5 9.5
2018-Jun-23 05:30N 67°01' E 013°44'5 9.1
2018-Jun-23 05:00N 66°58' E 013°34'4 7.1
2018-Jun-23 04:30N 66°55' E 013°30'22 8.4
2018-Jun-23 01:53N 66°39' E 012°51'3 8.0
2018-Jun-23 01:29N 66°37' E 012°47'4 8.6
2018-Jun-23 00:59N 66°33' E 012°41'4 8.4
2018-Jun-23 00:30N 66°30' E 012°35'4 8.3
2018-Jun-23 00:00N 66°26' E 012°31'4 8.1
2018-Jun-22 23:31N 66°22' E 012°26'2 2.8
2018-Jun-22 22:56N 66°22' E 012°23'0 0.0
2018-Jun-22 22:26N 66°22' E 012°23'0 0.0
2018-Jun-22 21:56N 66°22' E 012°23'0 0.0
2018-Jun-22 21:26N 66°22' E 012°23'0 0.0
2018-Jun-22 20:56N 66°22' E 012°23'0 0.0
2018-Jun-22 20:26N 66°22' E 012°23'0 0.0
2018-Jun-22 19:56N 66°22' E 012°23'0 0.0
2018-Jun-22 19:30N 66°22' E 012°23'0 0.0
2018-Jun-22 19:00N 66°22' E 012°23'0 0.0
2018-Jun-22 18:30N 66°22' E 012°23'0 0.0
2018-Jun-22 18:00N 66°22' E 012°23'0 0.0
2018-Jun-22 17:30N 66°22' E 012°23'0 0.0
2018-Jun-22 17:00N 66°22' E 012°23'0 0.0
2018-Jun-22 16:30N 66°22' E 012°23'0 0.0
2018-Jun-22 16:00N 66°22' E 012°23'0 0.0
2018-Jun-22 15:30N 66°22' E 012°23'0 0.0
2018-Jun-22 15:00N 66°22' E 012°23'2 5.0
2018-Jun-22 14:30N 66°23' E 012°28'5 9.0
2018-Jun-22 14:00N 66°25' E 012°38'5 9.1
2018-Jun-22 13:30N 66°27' E 012°49'5 9.0
2018-Jun-22 12:58N 66°29' E 012°59'13 8.7
2018-Jun-22 11:32N 66°41' E 013°08'1 9.1
2018-Jun-22 11:27N 66°42' E 013°08'14 9.0
2018-Jun-22 09:52N 66°54' E 013°27'3 8.3
2018-Jun-22 09:30N 66°57' E 013°29'5 9.0
2018-Jun-22 09:00N 66°60' E 013°38'4 8.9
2018-Jun-22 08:30N 67°02' E 013°48'4 9.1
2018-Jun-22 08:00N 67°05' E 013°56'4 8.7
2018-Jun-22 07:30N 67°09' E 014°02'4 8.5
2018-Jun-22 07:00N 67°13' E 014°08'4 8.5
2018-Jun-22 06:30N 67°16' E 014°13'4 8.4
2018-Jun-22 06:00N 67°20' E 014°20'4 8.4
2018-Jun-22 05:30N 67°23' E 014°25'3 5.7
2018-Jun-22 05:00N 67°26' E 014°27'3 5.3
2018-Jun-22 04:30N 67°29' E 014°28'4 0.1
2018-Jun-20 10:14N 67°32' E 014°30'2 9.4
2018-Jun-20 10:00N 67°30' E 014°29'5 9.4
2018-Jun-20 09:30N 67°26' E 014°27'5 9.7
2018-Jun-20 09:00N 67°21' E 014°25'4 7.6
2018-Jun-20 08:31N 67°17' E 014°23'0 0.4
2018-Jun-20 08:00N 67°17' E 014°23'0 0.1
2018-Jun-20 07:30N 67°17' E 014°23'3 5.2
2018-Jun-20 07:00N 67°16' E 014°18'5 9.7
2018-Jun-20 06:30N 67°12' E 014°09'510.3
2018-Jun-20 06:00N 67°08' E 014°01'510.3
2018-Jun-20 05:30N 67°04' E 013°54'510.1
2018-Jun-20 05:00N 67°01' E 013°43'510.0
2018-Jun-20 04:30N 66°58' E 013°33'17 9.6
2018-Jun-20 02:46N 66°44' E 013°11'410.0
2018-Jun-20 02:22N 66°40' E 013°07'7 9.5
2018-Jun-20 01:35N 66°33' E 013°01'110.6
2018-Jun-20 01:30N 66°32' E 012°59'  
Track history (hours):
 
Tides and Currents Weather Stations Pressure Air Temp Water Temp Dewpoint Dewpoint Depression Visibility Wind Speed Wind Dir Waves Ship Positions

Akvatrans

Last reported at 2018-Jun-30 00:52 UTC. Time now 2018-Jul-15 19:00 UTC.
Position N 68°45' E 016°42'.
Warning: this ship's position is 15 days out of date.

Length 44 m; draft 4 m.

Type: Ship. MMSI: 257034600.

Date/timePositionNaut miles runAvg speedWind from/ knotsBaromVisibWave heightAir tempDewpointWater temp
2018-Jun-30 00:52N 68°45' E 016°42'  
2018-Jun-27 17:08N 68°54' E 017°27'1 8.8
2018-Jun-27 17:01N 68°55' E 017°26'4 8.8
2018-Jun-27 16:30N 68°59' E 017°27'5 9.2
2018-Jun-27 16:00N 69°03' E 017°33'4 8.5
2018-Jun-27 15:30N 69°07' E 017°39'4 8.8
2018-Jun-27 15:00N 69°09' E 017°49'5 9.1
2018-Jun-27 14:30N 69°11' E 018°01'  
2018-Jun-24 03:13N 69°12' E 018°01'3 9.1
2018-Jun-24 02:56N 69°10' E 017°56'410.4
2018-Jun-24 02:30N 69°08' E 017°45'510.1
2018-Jun-24 02:00N 69°06' E 017°32'6 9.2
2018-Jun-24 01:21N 69°02' E 017°19'3 9.3
2018-Jun-24 01:00N 68°60' E 017°14'5 9.3
2018-Jun-24 00:30N 68°56' E 017°06'5 9.6
2018-Jun-24 00:00N 68°52' E 016°59'5 9.6
2018-Jun-23 23:30N 68°48' E 016°52'92 7.6
2018-Jun-23 11:30N 67°33' E 014°30'5 9.6
2018-Jun-23 11:00N 67°28' E 014°28'5 9.5
2018-Jun-23 10:31N 67°23' E 014°26'1 2.4
2018-Jun-23 10:00N 67°23' E 014°23'0 0.0
2018-Jun-23 09:30N 67°23' E 014°23'0 0.0
2018-Jun-23 09:01N 67°23' E 014°23'2 3.2
2018-Jun-23 08:30N 67°24' E 014°26'5 9.2
2018-Jun-23 08:00N 67°20' E 014°20'5 9.9
2018-Jun-23 07:30N 67°16' E 014°13'5 9.5
2018-Jun-23 07:00N 67°12' E 014°06'5 9.6
2018-Jun-23 06:30N 67°07' E 014°01'5 9.4
2018-Jun-23 06:00N 67°04' E 013°53'5 9.5
2018-Jun-23 05:30N 67°01' E 013°44'5 9.1
2018-Jun-23 05:00N 66°58' E 013°34'4 7.1
2018-Jun-23 04:30N 66°55' E 013°30'22 8.4
2018-Jun-23 01:53N 66°39' E 012°51'3 8.0
2018-Jun-23 01:29N 66°37' E 012°47'4 8.6
2018-Jun-23 00:59N 66°33' E 012°41'4 8.4
2018-Jun-23 00:30N 66°30' E 012°35'4 8.3
2018-Jun-23 00:00N 66°26' E 012°31'4 8.1
2018-Jun-22 23:31N 66°22' E 012°26'2 2.8
2018-Jun-22 22:56N 66°22' E 012°23'0 0.0
2018-Jun-22 22:26N 66°22' E 012°23'0 0.0
2018-Jun-22 21:56N 66°22' E 012°23'0 0.0
2018-Jun-22 21:26N 66°22' E 012°23'0 0.0
2018-Jun-22 20:56N 66°22' E 012°23'0 0.0
2018-Jun-22 20:26N 66°22' E 012°23'0 0.0
2018-Jun-22 19:56N 66°22' E 012°23'0 0.0
2018-Jun-22 19:30N 66°22' E 012°23'0 0.0
2018-Jun-22 19:00N 66°22' E 012°23'0 0.0
2018-Jun-22 18:30N 66°22' E 012°23'0 0.0
2018-Jun-22 18:00N 66°22' E 012°23'0 0.0
2018-Jun-22 17:30N 66°22' E 012°23'0 0.0
2018-Jun-22 17:00N 66°22' E 012°23'0 0.0
2018-Jun-22 16:30N 66°22' E 012°23'0 0.0
2018-Jun-22 16:00N 66°22' E 012°23'0 0.0
2018-Jun-22 15:30N 66°22' E 012°23'0 0.0
2018-Jun-22 15:00N 66°22' E 012°23'2 5.0
2018-Jun-22 14:30N 66°23' E 012°28'5 9.0
2018-Jun-22 14:00N 66°25' E 012°38'5 9.1
2018-Jun-22 13:30N 66°27' E 012°49'5 9.0
2018-Jun-22 12:58N 66°29' E 012°59'13 8.7
2018-Jun-22 11:32N 66°41' E 013°08'1 9.1
2018-Jun-22 11:27N 66°42' E 013°08'14 9.0
2018-Jun-22 09:52N 66°54' E 013°27'3 8.3
2018-Jun-22 09:30N 66°57' E 013°29'5 9.0
2018-Jun-22 09:00N 66°60' E 013°38'4 8.9
2018-Jun-22 08:30N 67°02' E 013°48'4 9.1
2018-Jun-22 08:00N 67°05' E 013°56'4 8.7
2018-Jun-22 07:30N 67°09' E 014°02'4 8.5
2018-Jun-22 07:00N 67°13' E 014°08'4 8.5
2018-Jun-22 06:30N 67°16' E 014°13'4 8.4
2018-Jun-22 06:00N 67°20' E 014°20'4 8.4
2018-Jun-22 05:30N 67°23' E 014°25'3 5.7
2018-Jun-22 05:00N 67°26' E 014°27'3 5.3
2018-Jun-22 04:30N 67°29' E 014°28'4 0.1
2018-Jun-20 10:14N 67°32' E 014°30'2 9.4
2018-Jun-20 10:00N 67°30' E 014°29'5 9.4
2018-Jun-20 09:30N 67°26' E 014°27'5 9.7
2018-Jun-20 09:00N 67°21' E 014°25'4 7.6
2018-Jun-20 08:31N 67°17' E 014°23'0 0.4
2018-Jun-20 08:00N 67°17' E 014°23'0 0.1
2018-Jun-20 07:30N 67°17' E 014°23'3 5.2
2018-Jun-20 07:00N 67°16' E 014°18'5 9.7
2018-Jun-20 06:30N 67°12' E 014°09'510.3
2018-Jun-20 06:00N 67°08' E 014°01'510.3
2018-Jun-20 05:30N 67°04' E 013°54'510.1
2018-Jun-20 05:00N 67°01' E 013°43'510.0
2018-Jun-20 04:30N 66°58' E 013°33'17 9.6
2018-Jun-20 02:46N 66°44' E 013°11'410.0
2018-Jun-20 02:22N 66°40' E 013°07'7 9.5
2018-Jun-20 01:35N 66°33' E 013°01'110.6
2018-Jun-20 01:30N 66°32' E 012°59'  

Dump ship's entire track history